sensor_id;sensor_type;location;lat;lon;timestamp;P1;durP1;ratioP1;P2;durP2;ratioP2
26822;SDS011;14852;51.910;8.878;2023-03-03T00:00:46;27.33;;;15.85;;
26822;SDS011;14852;51.910;8.878;2023-03-03T00:03:13;26.88;;;15.02;;
26822;SDS011;14852;51.910;8.878;2023-03-03T00:05:43;24.75;;;15.40;;
26822;SDS011;14852;51.910;8.878;2023-03-03T00:08:09;20.35;;;12.90;;
26822;SDS011;14852;51.910;8.878;2023-03-03T00:10:35;22.85;;;12.80;;
26822;SDS011;14852;51.910;8.878;2023-03-03T00:13:02;21.10;;;12.65;;
26822;SDS011;14852;51.910;8.878;2023-03-03T00:15:30;23.85;;;12.98;;
26822;SDS011;14852;51.910;8.878;2023-03-03T00:17:56;22.90;;;13.05;;
26822;SDS011;14852;51.910;8.878;2023-03-03T00:20:28;23.73;;;13.38;;
26822;SDS011;14852;51.910;8.878;2023-03-03T00:25:52;22.80;;;11.85;;
26822;SDS011;14852;51.910;8.878;2023-03-03T00:28:31;23.90;;;13.73;;
26822;SDS011;14852;51.910;8.878;2023-03-03T00:31:28;23.00;;;13.27;;
26822;SDS011;14852;51.910;8.878;2023-03-03T00:34:20;24.77;;;13.40;;
26822;SDS011;14852;51.910;8.878;2023-03-03T00:36:53;23.85;;;13.38;;
26822;SDS011;14852;51.910;8.878;2023-03-03T00:39:37;24.65;;;13.82;;
26822;SDS011;14852;51.910;8.878;2023-03-03T00:42:13;24.40;;;13.70;;
26822;SDS011;14852;51.910;8.878;2023-03-03T00:44:41;22.40;;;13.27;;
26822;SDS011;14852;51.910;8.878;2023-03-03T00:49:53;23.83;;;11.25;;
26822;SDS011;14852;51.910;8.878;2023-03-03T00:52:45;20.70;;;13.05;;
26822;SDS011;14852;51.910;8.878;2023-03-03T00:55:37;23.80;;;14.38;;
26822;SDS011;14852;51.910;8.878;2023-03-03T00:58:04;20.05;;;12.57;;
26822;SDS011;14852;51.910;8.878;2023-03-03T01:00:34;21.27;;;13.27;;
26822;SDS011;14852;51.910;8.878;2023-03-03T01:03:04;21.92;;;12.35;;
26822;SDS011;14852;51.910;8.878;2023-03-03T01:05:34;19.95;;;12.73;;
26822;SDS011;14852;51.910;8.878;2023-03-03T01:08:00;21.52;;;13.45;;
26822;SDS011;14852;51.910;8.878;2023-03-03T01:10:27;20.42;;;12.10;;
26822;SDS011;14852;51.910;8.878;2023-03-03T01:12:56;17.58;;;11.10;;
26822;SDS011;14852;51.910;8.878;2023-03-03T01:15:22;21.77;;;12.68;;
26822;SDS011;14852;51.910;8.878;2023-03-03T01:17:49;20.75;;;13.25;;
26822;SDS011;14852;51.910;8.878;2023-03-03T01:20:15;19.02;;;11.13;;
26822;SDS011;14852;51.910;8.878;2023-03-03T01:22:42;20.77;;;12.65;;
26822;SDS011;14852;51.910;8.878;2023-03-03T01:25:08;22.77;;;12.45;;
26822;SDS011;14852;51.910;8.878;2023-03-03T01:27:36;18.65;;;11.07;;
26822;SDS011;14852;51.910;8.878;2023-03-03T01:30:03;18.35;;;10.57;;
26822;SDS011;14852;51.910;8.878;2023-03-03T01:32:30;21.08;;;11.18;;
26822;SDS011;14852;51.910;8.878;2023-03-03T01:34:56;17.65;;;10.90;;
26822;SDS011;14852;51.910;8.878;2023-03-03T01:37:22;17.10;;;10.75;;
26822;SDS011;14852;51.910;8.878;2023-03-03T01:39:49;19.88;;;10.75;;
26822;SDS011;14852;51.910;8.878;2023-03-03T01:42:17;20.38;;;11.50;;
26822;SDS011;14852;51.910;8.878;2023-03-03T01:44:43;15.45;;;10.23;;
26822;SDS011;14852;51.910;8.878;2023-03-03T01:47:13;15.38;;;10.30;;
26822;SDS011;14852;51.910;8.878;2023-03-03T01:49:49;15.25;;;9.93;;
26822;SDS011;14852;51.910;8.878;2023-03-03T01:52:29;14.20;;;9.18;;
26822;SDS011;14852;51.910;8.878;2023-03-03T01:55:03;13.75;;;8.13;;
26822;SDS011;14852;51.910;8.878;2023-03-03T01:57:38;14.18;;;9.38;;
26822;SDS011;14852;51.910;8.878;2023-03-03T02:02:39;14.68;;;9.45;;
26822;SDS011;14852;51.910;8.878;2023-03-03T02:05:06;15.60;;;9.50;;
26822;SDS011;14852;51.910;8.878;2023-03-03T02:07:34;15.68;;;9.10;;
26822;SDS011;14852;51.910;8.878;2023-03-03T02:12:32;15.65;;;9.57;;
26822;SDS011;14852;51.910;8.878;2023-03-03T02:15:16;14.05;;;8.25;;
26822;SDS011;14852;51.910;8.878;2023-03-03T02:18:09;12.50;;;7.35;;
26822;SDS011;14852;51.910;8.878;2023-03-03T02:23:23;11.30;;;7.40;;
26822;SDS011;14852;51.910;8.878;2023-03-03T02:26:18;12.30;;;7.93;;
26822;SDS011;14852;51.910;8.878;2023-03-03T02:28:53;14.10;;;8.20;;
26822;SDS011;14852;51.910;8.878;2023-03-03T02:31:20;14.90;;;9.30;;
26822;SDS011;14852;51.910;8.878;2023-03-03T02:33:49;15.63;;;9.25;;
26822;SDS011;14852;51.910;8.878;2023-03-03T02:36:18;16.63;;;10.23;;
26822;SDS011;14852;51.910;8.878;2023-03-03T02:38:54;14.15;;;8.73;;
26822;SDS011;14852;51.910;8.878;2023-03-03T02:41:29;12.98;;;7.45;;
26822;SDS011;14852;51.910;8.878;2023-03-03T02:44:10;17.08;;;9.23;;
26822;SDS011;14852;51.910;8.878;2023-03-03T02:46:42;16.63;;;9.88;;
26822;SDS011;14852;51.910;8.878;2023-03-03T02:49:12;14.90;;;9.40;;
26822;SDS011;14852;51.910;8.878;2023-03-03T02:51:42;14.18;;;9.25;;
26822;SDS011;14852;51.910;8.878;2023-03-03T02:54:09;12.20;;;7.72;;
26822;SDS011;14852;51.910;8.878;2023-03-03T02:56:36;14.25;;;9.50;;
26822;SDS011;14852;51.910;8.878;2023-03-03T02:59:03;14.57;;;8.55;;
26822;SDS011;14852;51.910;8.878;2023-03-03T03:01:33;10.50;;;6.95;;
26822;SDS011;14852;51.910;8.878;2023-03-03T03:04:07;15.90;;;8.55;;
26822;SDS011;14852;51.910;8.878;2023-03-03T03:06:49;14.35;;;7.82;;
26822;SDS011;14852;51.910;8.878;2023-03-03T03:09:17;15.45;;;9.20;;
26822;SDS011;14852;51.910;8.878;2023-03-03T03:11:47;13.23;;;8.68;;
26822;SDS011;14852;51.910;8.878;2023-03-03T03:14:16;12.43;;;7.45;;
26822;SDS011;14852;51.910;8.878;2023-03-03T03:16:42;16.48;;;9.70;;
26822;SDS011;14852;51.910;8.878;2023-03-03T03:19:09;14.68;;;8.68;;
26822;SDS011;14852;51.910;8.878;2023-03-03T03:21:36;13.35;;;7.80;;
26822;SDS011;14852;51.910;8.878;2023-03-03T03:24:04;13.40;;;7.80;;
26822;SDS011;14852;51.910;8.878;2023-03-03T03:26:31;14.00;;;9.18;;
26822;SDS011;14852;51.910;8.878;2023-03-03T03:28:57;12.20;;;7.57;;
26822;SDS011;14852;51.910;8.878;2023-03-03T03:31:23;18.17;;;9.30;;
26822;SDS011;14852;51.910;8.878;2023-03-03T03:33:50;14.27;;;9.43;;
26822;SDS011;14852;51.910;8.878;2023-03-03T03:36:17;15.98;;;9.15;;
26822;SDS011;14852;51.910;8.878;2023-03-03T03:38:43;14.55;;;8.55;;
26822;SDS011;14852;51.910;8.878;2023-03-03T03:41:10;15.15;;;10.10;;
26822;SDS011;14852;51.910;8.878;2023-03-03T03:43:37;14.85;;;9.10;;
26822;SDS011;14852;51.910;8.878;2023-03-03T03:46:03;14.77;;;8.93;;
26822;SDS011;14852;51.910;8.878;2023-03-03T03:48:29;13.57;;;8.63;;
26822;SDS011;14852;51.910;8.878;2023-03-03T03:50:56;14.60;;;10.13;;
26822;SDS011;14852;51.910;8.878;2023-03-03T03:53:24;14.60;;;10.27;;
26822;SDS011;14852;51.910;8.878;2023-03-03T03:55:50;16.08;;;9.35;;
26822;SDS011;14852;51.910;8.878;2023-03-03T03:58:17;17.77;;;9.55;;
26822;SDS011;14852;51.910;8.878;2023-03-03T04:00:48;16.30;;;9.57;;
26822;SDS011;14852;51.910;8.878;2023-03-03T04:03:15;15.57;;;10.30;;
26822;SDS011;14852;51.910;8.878;2023-03-03T04:05:44;17.35;;;10.95;;
26822;SDS011;14852;51.910;8.878;2023-03-03T04:08:10;14.15;;;9.82;;
26822;SDS011;14852;51.910;8.878;2023-03-03T04:10:38;15.60;;;9.70;;
26822;SDS011;14852;51.910;8.878;2023-03-03T04:13:05;17.80;;;10.82;;
26822;SDS011;14852;51.910;8.878;2023-03-03T04:15:32;15.52;;;10.07;;
26822;SDS011;14852;51.910;8.878;2023-03-03T04:17:59;18.25;;;10.65;;
26822;SDS011;14852;51.910;8.878;2023-03-03T04:20:25;17.10;;;10.75;;
26822;SDS011;14852;51.910;8.878;2023-03-03T04:22:53;16.52;;;10.32;;
26822;SDS011;14852;51.910;8.878;2023-03-03T04:25:21;23.73;;;12.80;;
26822;SDS011;14852;51.910;8.878;2023-03-03T04:27:49;20.83;;;12.15;;
26822;SDS011;14852;51.910;8.878;2023-03-03T04:30:18;19.50;;;11.85;;
26822;SDS011;14852;51.910;8.878;2023-03-03T04:32:46;18.38;;;10.52;;
26822;SDS011;14852;51.910;8.878;2023-03-03T04:35:16;17.88;;;11.73;;
26822;SDS011;14852;51.910;8.878;2023-03-03T04:37:43;15.20;;;9.77;;
26822;SDS011;14852;51.910;8.878;2023-03-03T04:40:10;16.27;;;10.07;;
26822;SDS011;14852;51.910;8.878;2023-03-03T04:42:37;20.88;;;10.45;;
26822;SDS011;14852;51.910;8.878;2023-03-03T04:45:05;18.50;;;10.90;;
26822;SDS011;14852;51.910;8.878;2023-03-03T04:47:33;18.48;;;10.95;;
26822;SDS011;14852;51.910;8.878;2023-03-03T04:49:59;18.40;;;10.63;;
26822;SDS011;14852;51.910;8.878;2023-03-03T04:52:25;18.33;;;11.55;;
26822;SDS011;14852;51.910;8.878;2023-03-03T04:54:52;17.17;;;11.00;;
26822;SDS011;14852;51.910;8.878;2023-03-03T04:57:18;20.27;;;11.77;;
26822;SDS011;14852;51.910;8.878;2023-03-03T04:59:44;17.05;;;10.23;;
26822;SDS011;14852;51.910;8.878;2023-03-03T05:02:10;20.25;;;10.95;;
26822;SDS011;14852;51.910;8.878;2023-03-03T05:04:36;18.30;;;10.48;;
26822;SDS011;14852;51.910;8.878;2023-03-03T05:07:03;16.98;;;11.23;;
26822;SDS011;14852;51.910;8.878;2023-03-03T05:09:29;14.65;;;9.88;;
26822;SDS011;14852;51.910;8.878;2023-03-03T05:11:55;17.63;;;10.77;;
26822;SDS011;14852;51.910;8.878;2023-03-03T05:14:21;16.30;;;10.35;;
26822;SDS011;14852;51.910;8.878;2023-03-03T05:16:47;16.35;;;10.00;;
26822;SDS011;14852;51.910;8.878;2023-03-03T05:19:12;16.60;;;9.75;;
26822;SDS011;14852;51.910;8.878;2023-03-03T05:21:38;17.10;;;9.80;;
26822;SDS011;14852;51.910;8.878;2023-03-03T05:24:06;18.17;;;9.90;;
26822;SDS011;14852;51.910;8.878;2023-03-03T05:26:37;19.38;;;9.88;;
26822;SDS011;14852;51.910;8.878;2023-03-03T05:29:04;19.75;;;11.60;;
26822;SDS011;14852;51.910;8.878;2023-03-03T05:31:30;17.23;;;10.20;;
26822;SDS011;14852;51.910;8.878;2023-03-03T05:33:56;17.20;;;10.50;;
26822;SDS011;14852;51.910;8.878;2023-03-03T05:36:22;14.80;;;9.23;;
26822;SDS011;14852;51.910;8.878;2023-03-03T05:38:48;16.30;;;9.20;;
26822;SDS011;14852;51.910;8.878;2023-03-03T05:41:14;14.93;;;7.72;;
26822;SDS011;14852;51.910;8.878;2023-03-03T05:43:40;18.95;;;9.60;;
26822;SDS011;14852;51.910;8.878;2023-03-03T05:46:06;15.18;;;9.15;;
26822;SDS011;14852;51.910;8.878;2023-03-03T05:48:32;14.68;;;7.97;;
26822;SDS011;14852;51.910;8.878;2023-03-03T05:50:58;15.18;;;8.60;;
26822;SDS011;14852;51.910;8.878;2023-03-03T05:53:25;16.15;;;9.73;;
26822;SDS011;14852;51.910;8.878;2023-03-03T05:55:52;15.25;;;9.13;;
26822;SDS011;14852;51.910;8.878;2023-03-03T05:58:18;17.38;;;9.23;;
26822;SDS011;14852;51.910;8.878;2023-03-03T06:00:44;15.80;;;8.75;;
26822;SDS011;14852;51.910;8.878;2023-03-03T06:03:09;17.27;;;8.60;;
26822;SDS011;14852;51.910;8.878;2023-03-03T06:05:35;16.90;;;10.18;;
26822;SDS011;14852;51.910;8.878;2023-03-03T06:08:01;15.27;;;9.52;;
26822;SDS011;14852;51.910;8.878;2023-03-03T06:10:27;15.10;;;8.88;;
26822;SDS011;14852;51.910;8.878;2023-03-03T06:12:56;14.23;;;8.60;;
26822;SDS011;14852;51.910;8.878;2023-03-03T06:15:22;15.98;;;9.38;;
26822;SDS011;14852;51.910;8.878;2023-03-03T06:17:48;11.98;;;7.70;;
26822;SDS011;14852;51.910;8.878;2023-03-03T06:20:14;17.05;;;9.20;;
26822;SDS011;14852;51.910;8.878;2023-03-03T06:22:40;16.85;;;9.68;;
26822;SDS011;14852;51.910;8.878;2023-03-03T06:25:06;12.88;;;8.45;;
26822;SDS011;14852;51.910;8.878;2023-03-03T06:27:32;15.40;;;8.50;;
26822;SDS011;14852;51.910;8.878;2023-03-03T06:29:58;16.23;;;8.82;;
26822;SDS011;14852;51.910;8.878;2023-03-03T06:32:24;13.10;;;8.65;;
26822;SDS011;14852;51.910;8.878;2023-03-03T06:34:50;15.50;;;8.75;;
26822;SDS011;14852;51.910;8.878;2023-03-03T06:37:16;15.57;;;8.18;;
26822;SDS011;14852;51.910;8.878;2023-03-03T06:39:42;15.07;;;9.00;;
26822;SDS011;14852;51.910;8.878;2023-03-03T06:42:07;15.70;;;8.45;;
26822;SDS011;14852;51.910;8.878;2023-03-03T06:44:34;13.60;;;7.63;;
26822;SDS011;14852;51.910;8.878;2023-03-03T06:47:00;15.30;;;8.88;;
26822;SDS011;14852;51.910;8.878;2023-03-03T06:49:26;13.27;;;7.53;;
26822;SDS011;14852;51.910;8.878;2023-03-03T06:51:52;11.98;;;7.68;;
26822;SDS011;14852;51.910;8.878;2023-03-03T06:54:18;14.23;;;7.55;;
26822;SDS011;14852;51.910;8.878;2023-03-03T06:56:50;15.05;;;8.48;;
26822;SDS011;14852;51.910;8.878;2023-03-03T06:59:22;13.80;;;8.23;;
26822;SDS011;14852;51.910;8.878;2023-03-03T07:01:48;13.32;;;7.75;;
26822;SDS011;14852;51.910;8.878;2023-03-03T07:06:59;13.48;;;7.72;;
26822;SDS011;14852;51.910;8.878;2023-03-03T07:09:40;12.85;;;7.43;;
26822;SDS011;14852;51.910;8.878;2023-03-03T07:12:23;13.45;;;7.68;;
26822;SDS011;14852;51.910;8.878;2023-03-03T07:17:47;12.18;;;6.95;;
26822;SDS011;14852;51.910;8.878;2023-03-03T07:20:20;12.45;;;7.93;;
26822;SDS011;14852;51.910;8.878;2023-03-03T07:23:18;13.13;;;7.68;;
26822;SDS011;14852;51.910;8.878;2023-03-03T07:26:21;15.85;;;8.85;;
26822;SDS011;14852;51.910;8.878;2023-03-03T07:29:00;14.18;;;8.32;;
26822;SDS011;14852;51.910;8.878;2023-03-03T07:31:46;14.35;;;8.77;;
26822;SDS011;14852;51.910;8.878;2023-03-03T07:36:45;12.52;;;7.97;;
26822;SDS011;14852;51.910;8.878;2023-03-03T07:44:39;13.63;;;7.70;;
26822;SDS011;14852;51.910;8.878;2023-03-03T07:47:17;13.57;;;8.55;;
26822;SDS011;14852;51.910;8.878;2023-03-03T07:49:45;13.48;;;7.40;;
26822;SDS011;14852;51.910;8.878;2023-03-03T07:52:38;16.27;;;8.23;;
26822;SDS011;14852;51.910;8.878;2023-03-03T07:55:25;12.35;;;7.13;;
26822;SDS011;14852;51.910;8.878;2023-03-03T07:58:14;14.00;;;8.15;;
26822;SDS011;14852;51.910;8.878;2023-03-03T08:03:51;15.98;;;7.63;;
26822;SDS011;14852;51.910;8.878;2023-03-03T08:11:36;11.57;;;6.95;;
26822;SDS011;14852;51.910;8.878;2023-03-03T08:14:29;14.65;;;7.68;;
26822;SDS011;14852;51.910;8.878;2023-03-03T08:16:59;10.70;;;6.40;;
26822;SDS011;14852;51.910;8.878;2023-03-03T08:19:25;11.57;;;7.10;;
26822;SDS011;14852;51.910;8.878;2023-03-03T08:21:57;10.88;;;6.45;;
26822;SDS011;14852;51.910;8.878;2023-03-03T08:24:33;13.10;;;7.45;;
26822;SDS011;14852;51.910;8.878;2023-03-03T08:26:59;12.10;;;6.93;;
26822;SDS011;14852;51.910;8.878;2023-03-03T08:29:24;11.27;;;6.63;;
26822;SDS011;14852;51.910;8.878;2023-03-03T08:31:50;12.35;;;6.35;;
26822;SDS011;14852;51.910;8.878;2023-03-03T08:34:16;8.77;;;6.20;;
26822;SDS011;14852;51.910;8.878;2023-03-03T08:36:42;8.95;;;5.50;;
26822;SDS011;14852;51.910;8.878;2023-03-03T08:39:07;9.38;;;6.07;;
26822;SDS011;14852;51.910;8.878;2023-03-03T08:41:34;11.43;;;6.60;;
26822;SDS011;14852;51.910;8.878;2023-03-03T08:44:00;15.95;;;9.20;;
26822;SDS011;14852;51.910;8.878;2023-03-03T08:46:25;12.13;;;7.93;;
26822;SDS011;14852;51.910;8.878;2023-03-03T08:48:52;10.20;;;5.82;;
26822;SDS011;14852;51.910;8.878;2023-03-03T08:51:18;10.32;;;6.05;;
26822;SDS011;14852;51.910;8.878;2023-03-03T08:53:44;10.70;;;6.57;;
26822;SDS011;14852;51.910;8.878;2023-03-03T08:56:10;10.02;;;6.78;;
26822;SDS011;14852;51.910;8.878;2023-03-03T08:58:36;11.30;;;6.40;;
26822;SDS011;14852;51.910;8.878;2023-03-03T09:01:03;10.48;;;6.03;;
26822;SDS011;14852;51.910;8.878;2023-03-03T09:03:29;11.30;;;6.47;;
26822;SDS011;14852;51.910;8.878;2023-03-03T09:05:55;9.70;;;5.70;;
26822;SDS011;14852;51.910;8.878;2023-03-03T09:08:21;10.10;;;7.05;;
26822;SDS011;14852;51.910;8.878;2023-03-03T09:10:46;10.15;;;6.53;;
26822;SDS011;14852;51.910;8.878;2023-03-03T09:13:13;9.93;;;6.05;;
26822;SDS011;14852;51.910;8.878;2023-03-03T09:15:42;9.90;;;5.80;;
26822;SDS011;14852;51.910;8.878;2023-03-03T09:18:11;9.88;;;5.88;;
26822;SDS011;14852;51.910;8.878;2023-03-03T09:20:47;8.75;;;5.60;;
26822;SDS011;14852;51.910;8.878;2023-03-03T09:23:27;9.15;;;4.95;;
26822;SDS011;14852;51.910;8.878;2023-03-03T09:31:44;10.48;;;5.72;;
26822;SDS011;14852;51.910;8.878;2023-03-03T09:34:20;9.40;;;6.10;;
26822;SDS011;14852;51.910;8.878;2023-03-03T09:37:14;11.45;;;6.07;;
26822;SDS011;14852;51.910;8.878;2023-03-03T09:39:51;9.52;;;6.03;;
26822;SDS011;14852;51.910;8.878;2023-03-03T09:42:33;11.73;;;6.57;;
26822;SDS011;14852;51.910;8.878;2023-03-03T09:45:23;10.07;;;6.40;;
26822;SDS011;14852;51.910;8.878;2023-03-03T09:48:11;11.00;;;6.70;;
26822;SDS011;14852;51.910;8.878;2023-03-03T10:05:44;11.15;;;7.22;;
26822;SDS011;14852;51.910;8.878;2023-03-03T10:08:36;9.85;;;5.93;;
26822;SDS011;14852;51.910;8.878;2023-03-03T10:14:37;9.88;;;6.88;;
26822;SDS011;14852;51.910;8.878;2023-03-03T10:20:03;11.25;;;7.40;;
26822;SDS011;14852;51.910;8.878;2023-03-03T10:25:25;12.75;;;6.93;;
26822;SDS011;14852;51.910;8.878;2023-03-03T10:28:21;10.38;;;7.03;;
26822;SDS011;14852;51.910;8.878;2023-03-03T10:33:43;10.80;;;6.22;;
26822;SDS011;14852;51.910;8.878;2023-03-03T10:48:52;8.68;;;5.15;;
26822;SDS011;14852;51.910;8.878;2023-03-03T10:57:41;8.35;;;5.35;;
26822;SDS011;14852;51.910;8.878;2023-03-03T11:00:32;9.68;;;5.63;;
26822;SDS011;14852;51.910;8.878;2023-03-03T11:03:26;9.38;;;5.90;;
26822;SDS011;14852;51.910;8.878;2023-03-03T11:06:34;8.05;;;6.22;;
26822;SDS011;14852;51.910;8.878;2023-03-03T11:14:42;10.17;;;5.90;;
26822;SDS011;14852;51.910;8.878;2023-03-03T11:23:26;12.43;;;7.63;;
26822;SDS011;14852;51.910;8.878;2023-03-03T11:32:26;11.15;;;7.05;;
26822;SDS011;14852;51.910;8.878;2023-03-03T11:35:25;13.60;;;7.47;;
26822;SDS011;14852;51.910;8.878;2023-03-03T11:43:50;10.45;;;6.90;;
26822;SDS011;14852;51.910;8.878;2023-03-03T11:46:33;10.70;;;7.00;;
26822;SDS011;14852;51.910;8.878;2023-03-03T11:49:21;12.30;;;6.75;;
26822;SDS011;14852;51.910;8.878;2023-03-03T11:57:41;10.07;;;6.40;;
26822;SDS011;14852;51.910;8.878;2023-03-03T12:09:42;9.27;;;7.13;;
26822;SDS011;14852;51.910;8.878;2023-03-03T12:12:38;12.00;;;7.38;;
26822;SDS011;14852;51.910;8.878;2023-03-03T12:15:18;11.75;;;7.55;;
26822;SDS011;14852;51.910;8.878;2023-03-03T12:18:19;10.48;;;6.88;;
26822;SDS011;14852;51.910;8.878;2023-03-03T12:21:22;8.27;;;5.78;;
26822;SDS011;14852;51.910;8.878;2023-03-03T12:29:31;11.25;;;7.25;;
26822;SDS011;14852;51.910;8.878;2023-03-03T12:32:35;10.82;;;7.63;;
26822;SDS011;14852;51.910;8.878;2023-03-03T12:38:29;10.15;;;7.38;;
26822;SDS011;14852;51.910;8.878;2023-03-03T12:41:19;10.85;;;7.65;;
26822;SDS011;14852;51.910;8.878;2023-03-03T12:44:23;12.15;;;7.53;;
26822;SDS011;14852;51.910;8.878;2023-03-03T12:47:08;14.02;;;8.85;;
26822;SDS011;14852;51.910;8.878;2023-03-03T12:53:38;13.32;;;8.32;;
26822;SDS011;14852;51.910;8.878;2023-03-03T12:56:05;14.02;;;9.20;;
26822;SDS011;14852;51.910;8.878;2023-03-03T12:58:42;12.25;;;8.43;;
26822;SDS011;14852;51.910;8.878;2023-03-03T13:01:29;14.52;;;8.35;;
26822;SDS011;14852;51.910;8.878;2023-03-03T13:13:02;12.27;;;7.65;;
26822;SDS011;14852;51.910;8.878;2023-03-03T13:19:15;9.85;;;7.10;;
26822;SDS011;14852;51.910;8.878;2023-03-03T13:21:58;12.25;;;8.50;;
26822;SDS011;14852;51.910;8.878;2023-03-03T13:25:06;11.27;;;6.78;;
26822;SDS011;14852;51.910;8.878;2023-03-03T13:27:56;13.00;;;8.38;;
26822;SDS011;14852;51.910;8.878;2023-03-03T13:30:36;12.20;;;8.47;;
26822;SDS011;14852;51.910;8.878;2023-03-03T13:33:25;15.63;;;8.57;;
26822;SDS011;14852;51.910;8.878;2023-03-03T13:38:27;12.23;;;7.38;;
26822;SDS011;14852;51.910;8.878;2023-03-03T13:46:37;10.95;;;8.02;;
26822;SDS011;14852;51.910;8.878;2023-03-03T13:49:44;13.65;;;8.63;;
26822;SDS011;14852;51.910;8.878;2023-03-03T13:52:26;14.48;;;8.48;;
26822;SDS011;14852;51.910;8.878;2023-03-03T14:00:47;13.65;;;8.85;;
26822;SDS011;14852;51.910;8.878;2023-03-03T14:03:39;11.85;;;8.50;;
26822;SDS011;14852;51.910;8.878;2023-03-03T14:06:22;14.85;;;8.82;;
26822;SDS011;14852;51.910;8.878;2023-03-03T14:08:58;15.32;;;8.70;;
26822;SDS011;14852;51.910;8.878;2023-03-03T14:11:34;16.10;;;9.13;;
26822;SDS011;14852;51.910;8.878;2023-03-03T14:14:40;15.40;;;8.73;;
26822;SDS011;14852;51.910;8.878;2023-03-03T14:17:37;13.05;;;8.50;;
26822;SDS011;14852;51.910;8.878;2023-03-03T14:20:20;17.08;;;10.05;;
26822;SDS011;14852;51.910;8.878;2023-03-03T14:26:14;16.60;;;9.68;;
26822;SDS011;14852;51.910;8.878;2023-03-03T14:28:44;16.67;;;9.98;;
26822;SDS011;14852;51.910;8.878;2023-03-03T14:34:02;16.60;;;9.02;;
26822;SDS011;14852;51.910;8.878;2023-03-03T14:36:47;19.88;;;10.70;;
26822;SDS011;14852;51.910;8.878;2023-03-03T14:39:29;21.65;;;11.73;;
26822;SDS011;14852;51.910;8.878;2023-03-03T14:42:05;23.25;;;12.50;;
26822;SDS011;14852;51.910;8.878;2023-03-03T14:44:55;21.75;;;13.35;;
26822;SDS011;14852;51.910;8.878;2023-03-03T14:47:26;26.75;;;14.77;;
26822;SDS011;14852;51.910;8.878;2023-03-03T14:49:53;27.17;;;15.35;;
26822;SDS011;14852;51.910;8.878;2023-03-03T14:52:32;24.27;;;16.27;;
26822;SDS011;14852;51.910;8.878;2023-03-03T14:54:59;26.92;;;13.70;;
26822;SDS011;14852;51.910;8.878;2023-03-03T14:57:46;24.40;;;14.52;;
26822;SDS011;14852;51.910;8.878;2023-03-03T15:05:48;29.33;;;17.33;;
26822;SDS011;14852;51.910;8.878;2023-03-03T15:08:22;33.60;;;18.02;;
26822;SDS011;14852;51.910;8.878;2023-03-03T15:11:11;31.35;;;17.92;;
26822;SDS011;14852;51.910;8.878;2023-03-03T15:13:48;39.35;;;21.33;;
26822;SDS011;14852;51.910;8.878;2023-03-03T15:16:21;30.75;;;17.42;;
26822;SDS011;14852;51.910;8.878;2023-03-03T15:22:13;27.42;;;17.85;;
26822;SDS011;14852;51.910;8.878;2023-03-03T15:28:14;30.52;;;17.15;;
26822;SDS011;14852;51.910;8.878;2023-03-03T15:36:43;34.47;;;19.13;;
26822;SDS011;14852;51.910;8.878;2023-03-03T15:42:14;32.78;;;17.73;;
26822;SDS011;14852;51.910;8.878;2023-03-03T15:44:55;30.88;;;18.05;;
26822;SDS011;14852;51.910;8.878;2023-03-03T15:47:51;32.25;;;17.75;;
26822;SDS011;14852;51.910;8.878;2023-03-03T15:51:24;30.70;;;17.50;;
26822;SDS011;14852;51.910;8.878;2023-03-03T15:57:09;30.55;;;16.08;;
26822;SDS011;14852;51.910;8.878;2023-03-03T16:03:56;29.33;;;16.02;;
26822;SDS011;14852;51.910;8.878;2023-03-03T16:06:48;29.48;;;15.98;;
26822;SDS011;14852;51.910;8.878;2023-03-03T16:10:06;27.13;;;16.23;;
26822;SDS011;14852;51.910;8.878;2023-03-03T16:15:54;24.05;;;13.88;;
26822;SDS011;14852;51.910;8.878;2023-03-03T16:18:51;25.05;;;13.15;;
26822;SDS011;14852;51.910;8.878;2023-03-03T16:24:32;23.08;;;14.30;;
26822;SDS011;14852;51.910;8.878;2023-03-03T16:30:46;22.70;;;13.27;;
26822;SDS011;14852;51.910;8.878;2023-03-03T16:36:31;20.48;;;11.77;;
26822;SDS011;14852;51.910;8.878;2023-03-03T16:39:20;21.15;;;13.35;;
26822;SDS011;14852;51.910;8.878;2023-03-03T16:42:30;19.35;;;11.48;;
26822;SDS011;14852;51.910;8.878;2023-03-03T16:53:57;16.58;;;10.75;;
26822;SDS011;14852;51.910;8.878;2023-03-03T17:00:03;18.35;;;12.55;;
26822;SDS011;14852;51.910;8.878;2023-03-03T17:03:02;21.20;;;11.55;;
26822;SDS011;14852;51.910;8.878;2023-03-03T17:05:42;19.65;;;10.75;;
26822;SDS011;14852;51.910;8.878;2023-03-03T17:14:37;18.50;;;11.65;;
26822;SDS011;14852;51.910;8.878;2023-03-03T17:29:33;19.42;;;12.52;;
26822;SDS011;14852;51.910;8.878;2023-03-03T17:35:13;22.75;;;12.45;;
26822;SDS011;14852;51.910;8.878;2023-03-03T17:41:41;22.10;;;13.75;;
26822;SDS011;14852;51.910;8.878;2023-03-03T17:48:34;23.45;;;13.05;;
26822;SDS011;14852;51.910;8.878;2023-03-03T17:54:15;21.23;;;12.95;;
26822;SDS011;14852;51.910;8.878;2023-03-03T18:11:48;21.30;;;12.73;;
26822;SDS011;14852;51.910;8.878;2023-03-03T18:14:36;18.63;;;11.93;;
26822;SDS011;14852;51.910;8.878;2023-03-03T18:17:27;20.38;;;12.02;;
26822;SDS011;14852;51.910;8.878;2023-03-03T18:20:26;22.83;;;12.10;;
26822;SDS011;14852;51.910;8.878;2023-03-03T18:31:48;20.15;;;11.70;;
26822;SDS011;14852;51.910;8.878;2023-03-03T18:36:53;26.55;;;12.77;;
26822;SDS011;14852;51.910;8.878;2023-03-03T18:39:41;25.98;;;13.38;;
26822;SDS011;14852;51.910;8.878;2023-03-03T18:44:41;22.65;;;13.05;;
26822;SDS011;14852;51.910;8.878;2023-03-03T18:47:08;26.70;;;12.57;;
26822;SDS011;14852;51.910;8.878;2023-03-03T18:52:25;23.50;;;15.13;;
26822;SDS011;14852;51.910;8.878;2023-03-03T18:57:34;29.52;;;16.88;;
26822;SDS011;14852;51.910;8.878;2023-03-03T19:00:13;27.90;;;16.55;;
26822;SDS011;14852;51.910;8.878;2023-03-03T19:02:41;28.45;;;15.68;;
26822;SDS011;14852;51.910;8.878;2023-03-03T19:08:27;21.45;;;12.77;;
26822;SDS011;14852;51.910;8.878;2023-03-03T19:14:19;23.73;;;14.07;;
26822;SDS011;14852;51.910;8.878;2023-03-03T19:20:02;23.50;;;13.77;;
26822;SDS011;14852;51.910;8.878;2023-03-03T19:22:44;26.15;;;15.32;;
26822;SDS011;14852;51.910;8.878;2023-03-03T19:25:27;27.05;;;15.07;;
26822;SDS011;14852;51.910;8.878;2023-03-03T19:30:49;26.98;;;13.48;;
26822;SDS011;14852;51.910;8.878;2023-03-03T19:33:24;22.48;;;13.32;;
26822;SDS011;14852;51.910;8.878;2023-03-03T19:57:10;29.33;;;14.15;;
26822;SDS011;14852;51.910;8.878;2023-03-03T20:00:17;35.75;;;15.63;;
26822;SDS011;14852;51.910;8.878;2023-03-03T20:07:01;22.00;;;12.93;;
26822;SDS011;14852;51.910;8.878;2023-03-03T20:10:05;29.92;;;14.88;;
26822;SDS011;14852;51.910;8.878;2023-03-03T20:16:09;28.30;;;15.18;;
26822;SDS011;14852;51.910;8.878;2023-03-03T20:18:37;31.88;;;15.10;;
26822;SDS011;14852;51.910;8.878;2023-03-03T20:24:38;30.42;;;16.08;;
26822;SDS011;14852;51.910;8.878;2023-03-03T20:27:43;31.10;;;16.52;;
26822;SDS011;14852;51.910;8.878;2023-03-03T20:30:29;30.40;;;16.13;;
26822;SDS011;14852;51.910;8.878;2023-03-03T20:33:43;26.67;;;15.93;;
26822;SDS011;14852;51.910;8.878;2023-03-03T20:37:07;29.92;;;15.82;;
26822;SDS011;14852;51.910;8.878;2023-03-03T20:42:27;29.70;;;16.23;;
26822;SDS011;14852;51.910;8.878;2023-03-03T20:45:10;30.55;;;14.90;;
26822;SDS011;14852;51.910;8.878;2023-03-03T20:51:02;29.15;;;17.27;;
26822;SDS011;14852;51.910;8.878;2023-03-03T20:56:52;26.92;;;13.95;;
26822;SDS011;14852;51.910;8.878;2023-03-03T20:59:59;30.08;;;14.75;;